Local Weather Dagens Jour: Jour Saturday 21st of January
Flygplats METAR TAF
Airport METAR TAF
ESSL - Linköping211450Z 00000KT CAVOK 05/02 Q1027= 211430Z 2115/2117 VRB02KT CAVOK=
ESSP - Norrköping211450Z AUTO 24003KT 9999 NCD 03/02 Q1027 RWY 27 DAMP 51-100 PCT BA GOOD= NO VALID TAF PUBLISHED
ESGJ - Jönköping211450Z AUTO 24005KT 9999 NCD 04/02 Q1028 RWY 19 ICE 51-100 PCT 1 MM FCT 0.38= 211430Z 2115/2121 23004KT CAVOK BECMG 2116/2118 0300 FZFG VV002 TEMPO 2118/2121 3000 BR SCT006=
ESKN - Skavsta211450Z 24004KT CAVOK 02/01 Q1027 RWY 26 WET OR WATER PATCHES 51-100 PCT 1 MM FCT 0.72= 211130Z 2112/2212 27006KT CAVOK PROB40 2117/2123 0400 BCFG BECMG 2123/2201 0300 FG VV002 TEMPO 2201/2212 5000 BR=
ESSV - Visby211450Z 15003KT CAVOK 03/01 Q1028 RWY 21 WET OR WATER PATCHES 51-100 PCT FCT 0.77= 211430Z 2115/2119 31004KT CAVOK=
ESGG - Göteborg211450Z 17003KT 120V200 0150 R03/0350N R21/0400N FZFG VV002 M00/M01 Q1028 RWY 21 WET OR WATER PATCHES 51-100 PCT BA GOOD= 211130Z 2112/2212 17003KT 0300 FZFG VV002 TEMPO 2112/2206 1500 BR SCT005 PROB40 2206/2212 3000 BR BKN005=